Time;durP1;ratioP1;P1;durP2;ratioP2;P2;SDS_P1;SDS_P2;PMS_P1;PMS_P2;Temp;Humidity;BMP_temperature;BMP_pressure;BME280_temperature;BME280_humidity;BME280_pressure;Samples;Min_cycle;Max_cycle;Signal;HPM_P1;HPM_P2
2021/08/08 00:01:23;;;;;;;10.75;7.15;;;;;;;15.02;74.44;96535.58;1785792;78;27362;-89
2021/08/08 00:03:49;;;;;;;8.78;6.92;;;;;;;15.04;74.67;96531.24;1793009;79;25655;-90
2021/08/08 00:06:16;;;;;;;11.25;6.72;;;;;;;15.08;74.77;96536.45;1792559;79;25752;-81
2021/08/08 00:08:43;;;;;;;15.72;7.03;;;;;;;15.09;74.75;96534.02;1793225;79;25786;-89
2021/08/08 00:11:09;;;;;;;8.73;6.67;;;;;;;15.08;74.79;96520.14;1791769;78;25682;-81
2021/08/08 00:13:36;;;;;;;8.80;6.50;;;;;;;15.01;74.71;96518.17;1789731;78;27367;-90
2021/08/08 00:16:03;;;;;;;10.70;6.78;;;;;;;14.90;74.93;96517.28;1791031;78;26584;-82
2021/08/08 00:18:30;;;;;;;8.88;6.03;;;;;;;14.84;75.15;96509.36;1788241;78;25691;-90
2021/08/08 00:20:57;;;;;;;15.13;6.55;;;;;;;14.79;75.45;96510.13;1768036;78;26070;-91
2021/08/08 00:23:23;;;;;;;11.35;7.40;;;;;;;14.73;75.63;96502.46;1768957;78;25694;-82
2021/08/08 00:25:50;;;;;;;12.33;6.70;;;;;;;14.68;75.77;96487.50;1793135;79;28232;-83
2021/08/08 00:28:17;;;;;;;12.88;7.00;;;;;;;14.62;75.94;96487.70;1793218;79;25770;-85
2021/08/08 00:30:44;;;;;;;11.48;7.37;;;;;;;14.58;76.02;96475.73;1791010;79;25732;-91
2021/08/08 00:33:11;;;;;;;13.35;7.95;;;;;;;14.61;76.15;96480.09;1792223;80;25721;-87
2021/08/08 00:35:42;;;;;;;13.40;8.68;;;;;;;14.66;76.18;96477.43;1793264;79;25807;-82
2021/08/08 00:38:06;;;;;;;14.13;9.28;;;;;;;14.72;76.21;96473.69;1792600;79;27564;-84
2021/08/08 00:40:32;;;;;;;14.15;9.28;;;;;;;14.77;76.22;96469.63;1793087;79;25709;-88
2021/08/08 00:42:59;;;;;;;11.40;6.78;;;;;;;14.80;76.17;96460.15;1792361;78;25882;-84
2021/08/08 00:45:25;;;;;;;8.33;6.03;;;;;;;14.80;76.14;96454.72;1793056;79;26139;-91
2021/08/08 00:47:52;;;;;;;13.72;7.05;;;;;;;14.80;76.03;96459.33;1793047;79;25700;-82
2021/08/08 00:50:19;;;;;;;12.95;7.00;;;;;;;14.82;76.00;96474.84;1793146;79;28097;-83
2021/08/08 00:52:45;;;;;;;11.43;5.78;;;;;;;14.83;75.97;96462.89;1790050;79;25736;-84
2021/08/08 00:55:13;;;;;;;7.70;5.85;;;;;;;14.75;75.92;96466.36;1788879;79;25780;-82
2021/08/08 00:57:39;;;;;;;13.28;6.08;;;;;;;14.68;75.95;96465.77;1789594;79;25760;-92
2021/08/08 01:00:09;;;;;;;7.42;6.22;;;;;;;14.65;76.04;96464.92;1785665;78;25733;-82
2021/08/08 01:02:41;;;;;;;9.40;5.40;;;;;;;14.61;76.04;96461.08;1780279;80;27366;-85
2021/08/08 01:08:32;;;;;;;8.50;5.55;;;;;;;14.59;76.47;96453.75;1873413;75;25583;-86
2021/08/08 01:11:58;;;;;;;8.98;6.37;;;;;;;14.65;76.41;96451.34;1859301;74;25620;-83
2021/08/08 01:17:17;;;;;;;11.33;7.25;;;;;;;14.68;76.39;96454.91;1856444;74;25652;-82
2021/08/08 01:20:00;;;;;;;9.65;6.62;;;;;;;14.63;76.43;96458.92;1819419;77;25249;-92
2021/08/08 01:24:07;;;;;;;11.35;7.12;;;;;;;14.54;76.53;96463.20;1873416;75;25666;-85
2021/08/08 01:26:34;;;;;;;11.20;6.10;;;;;;;14.49;76.64;96461.00;1850010;75;25732;-84
2021/08/08 01:29:02;;;;;;;14.68;7.78;;;;;;;14.45;76.61;96462.59;1855323;76;27296;-81
2021/08/08 01:31:29;;;;;;;9.60;6.85;;;;;;;14.49;76.69;96463.15;1839138;75;25714;-82
2021/08/08 01:33:55;;;;;;;9.38;7.80;;;;;;;14.51;76.67;96456.93;1841456;76;25779;-84
2021/08/08 01:36:23;;;;;;;10.25;7.83;;;;;;;14.47;76.68;96462.62;1831393;76;25744;-86
2021/08/08 01:39:06;;;;;;;9.48;6.92;;;;;;;14.53;76.75;96470.25;1844248;75;25721;-87
2021/08/08 01:41:47;;;;;;;10.78;7.60;;;;;;;14.52;76.69;96461.28;1839565;76;27365;-83
2021/08/08 01:44:14;;;;;;;10.65;7.80;;;;;;;14.47;76.85;96461.26;1819975;77;25766;-94
2021/08/08 01:46:42;;;;;;;12.15;7.50;;;;;;;14.49;76.91;96457.72;1821580;76;25708;-90
2021/08/08 01:49:09;;;;;;;10.18;6.92;;;;;;;14.45;76.85;96457.16;1844657;77;25773;-82
2021/08/08 01:51:36;;;;;;;9.78;7.20;;;;;;;14.45;76.90;96452.55;1819869;77;25214;-82
2021/08/08 01:54:03;;;;;;;10.28;7.15;;;;;;;14.41;76.82;96459.56;1840175;77;27496;-82
2021/08/08 01:56:30;;;;;;;10.32;7.65;;;;;;;14.37;76.95;96459.75;1820460;77;25726;-93
2021/08/08 01:58:56;;;;;;;9.60;6.85;;;;;;;14.40;77.05;96455.20;1827615;76;25264;-83
2021/08/08 02:01:30;;;;;;;11.30;7.37;;;;;;;14.40;76.98;96456.56;1837476;76;25763;-92
2021/08/08 02:03:57;;;;;;;9.38;6.83;;;;;;;14.41;76.95;96458.20;1836280;76;25749;-84
2021/08/08 02:06:24;;;;;;;11.12;7.10;;;;;;;14.40;76.91;96463.35;1844209;77;27981;-83
2021/08/08 02:08:50;;;;;;;8.68;7.10;;;;;;;14.35;76.81;96445.65;1797146;76;26086;-83
2021/08/08 02:11:17;;;;;;;11.20;7.35;;;;;;;14.26;76.87;96455.31;1827228;77;25685;-83
2021/08/08 02:13:43;;;;;;;10.15;7.00;;;;;;;14.30;77.00;96465.95;1824137;77;25862;-85
2021/08/08 02:16:10;;;;;;;8.38;7.33;;;;;;;14.24;76.93;96453.42;1832838;75;25690;-83
2021/08/08 02:18:37;;;;;;;9.50;6.50;;;;;;;14.22;77.13;96453.67;1844977;76;27326;-83
2021/08/08 02:21:03;;;;;;;9.65;7.05;;;;;;;14.20;77.15;96457.72;1829288;76;25864;-82
2021/08/08 02:23:30;;;;;;;10.38;7.50;;;;;;;14.15;77.15;96450.87;1844516;77;25972;-83
2021/08/08 02:25:56;;;;;;;8.18;7.20;;;;;;;14.11;77.25;96456.55;1803906;76;25599;-83
2021/08/08 02:28:23;;;;;;;10.65;7.00;;;;;;;14.17;77.38;96455.50;1821149;76;25653;-93
2021/08/08 02:30:50;;;;;;;10.53;6.90;;;;;;;14.15;77.38;96457.12;1811739;77;27326;-92
2021/08/08 02:33:16;;;;;;;10.13;7.20;;;;;;;14.17;77.49;96450.08;1815614;77;25211;-92
2021/08/08 02:35:43;;;;;;;7.47;5.97;;;;;;;14.14;77.42;96466.87;1811468;77;25751;-86
2021/08/08 02:38:09;;;;;;;9.95;6.87;;;;;;;14.15;77.52;96471.22;1815170;76;25734;-91
2021/08/08 02:40:36;;;;;;;8.88;6.65;;;;;;;14.12;77.52;96471.76;1834438;75;25791;-84
2021/08/08 02:43:03;;;;;;;9.88;6.35;;;;;;;14.10;77.55;96475.27;1834114;76;27339;-83
2021/08/08 02:45:30;;;;;;;11.30;7.60;;;;;;;14.10;77.60;96480.69;1806453;77;25686;-89
2021/08/08 02:47:56;;;;;;;10.93;7.30;;;;;;;14.10;77.68;96479.33;1816105;76;25222;-83
2021/08/08 02:50:24;;;;;;;7.15;6.03;;;;;;;14.11;77.70;96476.91;1812111;77;25650;-82
2021/08/08 02:52:53;;;;;;;11.30;6.65;;;;;;;14.09;77.71;96482.58;1818515;77;25698;-86
2021/08/08 02:55:19;;;;;;;8.18;6.25;;;;;;;14.11;77.74;96483.69;1830220;76;28434;-88
2021/08/08 02:57:45;;;;;;;10.13;7.37;;;;;;;14.04;77.61;96483.34;1843824;77;25742;-82
2021/08/08 03:00:13;;;;;;;7.80;6.42;;;;;;;14.03;77.77;96484.41;1844588;77;25252;-89
2021/08/08 03:02:40;;;;;;;12.58;7.40;;;;;;;14.05;77.82;96489.05;1844315;76;25677;-83
2021/08/08 03:05:08;;;;;;;8.25;6.60;;;;;;;14.06;77.78;96490.69;1843047;75;25776;-90
2021/08/08 03:07:35;;;;;;;9.08;6.30;;;;;;;14.10;77.85;96506.47;1840948;75;27583;-82
2021/08/08 03:10:06;;;;;;;11.60;7.30;;;;;;;14.07;77.78;96515.93;1802647;77;25691;-84
2021/08/08 03:12:32;;;;;;;9.85;6.87;;;;;;;14.06;77.84;96513.75;1825109;77;26364;-83
2021/08/08 03:14:59;;;;;;;8.58;6.85;;;;;;;14.00;77.76;96522.11;1843894;77;26150;-91
2021/08/08 03:17:26;;;;;;;13.62;7.42;;;;;;;14.00;77.84;96529.71;1844177;77;25753;-82
2021/08/08 03:19:52;;;;;;;12.60;7.75;;;;;;;14.00;77.89;96538.39;1830917;77;27394;-84
2021/08/08 03:22:19;;;;;;;13.90;7.87;;;;;;;13.98;77.86;96546.77;1844005;75;25675;-90
2021/08/08 03:24:45;;;;;;;10.80;7.15;;;;;;;13.97;77.87;96547.84;1836867;76;25785;-86
2021/08/08 03:27:12;;;;;;;17.85;8.08;;;;;;;13.93;77.89;96547.23;1843928;77;25624;-90
2021/08/08 03:29:39;;;;;;;12.03;7.80;;;;;;;13.94;77.92;96557.02;1814772;77;25677;-90
2021/08/08 03:32:06;;;;;;;13.08;6.87;;;;;;;13.95;78.08;96559.48;1823614;76;27356;-84
2021/08/08 03:34:35;;;;;;;11.43;7.22;;;;;;;13.88;78.07;96571.08;1843405;77;25770;-92
2021/08/08 03:37:02;;;;;;;11.45;6.60;;;;;;;13.93;78.32;96552.66;1843165;77;25742;-82
2021/08/08 03:39:30;;;;;;;11.63;6.53;;;;;;;13.93;78.42;96564.88;1843112;77;25769;-91
2021/08/08 03:41:56;;;;;;;9.90;6.58;;;;;;;13.96;78.53;96570.63;1854881;76;25619;-84
2021/08/08 03:44:23;;;;;;;9.23;7.10;;;;;;;13.97;78.64;96569.55;1825548;76;27518;-85
2021/08/08 03:46:50;;;;;;;11.40;7.53;;;;;;;14.02;78.75;96579.09;1827358;76;25761;-86
2021/08/08 03:49:18;;;;;;;10.82;6.62;;;;;;;14.02;78.78;96575.02;1836338;76;25822;-86
2021/08/08 03:51:44;;;;;;;12.35;6.53;;;;;;;14.00;78.90;96588.05;1843850;77;25735;-83
2021/08/08 03:54:11;;;;;;;10.45;6.65;;;;;;;14.05;78.99;96586.73;1836752;77;26497;-82
2021/08/08 03:56:38;;;;;;;11.68;7.50;;;;;;;14.06;79.07;96570.73;1843888;76;27411;-83
2021/08/08 03:59:04;;;;;;;8.73;6.50;;;;;;;14.08;79.10;96590.02;1843080;76;25777;-84
2021/08/08 04:01:31;;;;;;;12.33;7.10;;;;;;;14.12;79.15;96589.81;1843590;76;25722;-82
2021/08/08 04:03:57;;;;;;;9.73;6.00;;;;;;;14.15;79.25;96570.28;1847693;76;25837;-83
2021/08/08 04:06:24;;;;;;;10.25;6.95;;;;;;;14.18;79.28;96584.70;1821575;76;25724;-84
2021/08/08 04:08:51;;;;;;;12.13;7.20;;;;;;;14.20;79.46;96567.10;1831137;77;27292;-86
2021/08/08 04:11:17;;;;;;;8.10;5.97;;;;;;;14.25;79.49;96581.28;1841730;75;25880;-83
2021/08/08 04:13:44;;;;;;;9.15;5.33;;;;;;;14.28;79.63;96582.10;1853891;76;25772;-83
2021/08/08 04:16:10;;;;;;;11.08;5.90;;;;;;;14.27;79.54;96594.86;1842629;77;25749;-86
2021/08/08 04:18:37;;;;;;;7.45;5.70;;;;;;;14.35;79.69;96604.46;1844009;76;25770;-86
2021/08/08 04:21:03;;;;;;;12.10;5.92;;;;;;;14.41;79.74;96598.03;1842670;77;28133;-90
2021/08/08 04:23:30;;;;;;;8.90;5.40;;;;;;;14.49;79.77;96614.42;1842296;76;25958;-84
2021/08/08 04:25:57;;;;;;;6.92;5.30;;;;;;;14.56;79.90;96613.13;1842550;77;25631;-84
2021/08/08 04:28:23;;;;;;;7.28;4.87;;;;;;;14.64;79.95;96611.31;1837504;77;25711;-83
2021/08/08 04:30:50;;;;;;;9.50;6.47;;;;;;;14.69;79.87;96617.34;1828929;77;25706;-88
2021/08/08 04:33:17;;;;;;;8.80;4.67;;;;;;;14.77;79.94;96615.52;1849298;77;27341;-86
2021/08/08 04:35:43;;;;;;;8.45;5.28;;;;;;;14.85;80.00;96614.25;1849376;77;25260;-81
2021/08/08 04:38:10;;;;;;;7.22;5.33;;;;;;;14.95;80.08;96612.44;1844874;76;25681;-88
2021/08/08 04:40:36;;;;;;;8.15;5.50;;;;;;;15.03;79.92;96620.11;1840177;77;25746;-82
2021/08/08 04:43:06;;;;;;;8.45;5.08;;;;;;;15.11;79.95;96644.62;1849889;77;25682;-82
2021/08/08 04:45:35;;;;;;;;;;;;;;;15.19;79.91;96645.53;1852279;77;27408;-83
2021/08/08 04:48:02;;;;;;;5.92;5.33;;;;;;;15.25;80.13;96652.64;1849609;77;25778;-86
2021/08/08 04:50:28;;;;;;;6.55;5.25;;;;;;;15.29;80.02;96658.39;1849693;77;26484;-83
2021/08/08 04:52:55;;;;;;;6.95;5.65;;;;;;;15.34;79.87;96655.16;1849377;76;25721;-85
2021/08/08 04:55:22;;;;;;;8.65;5.42;;;;;;;15.40;79.80;96658.75;1831269;77;26070;-89
2021/08/08 04:57:48;;;;;;;9.23;5.65;;;;;;;15.45;79.74;96663.70;1840470;77;27346;-82
2021/08/08 05:00:16;;;;;;;10.10;5.37;;;;;;;15.52;79.66;96672.17;1849793;77;25735;-84
2021/08/08 05:02:48;;;;;;;6.33;5.53;;;;;;;15.57;79.63;96677.16;1849641;76;25693;-85
2021/08/08 05:05:16;;;;;;;12.93;7.65;;;;;;;15.63;79.74;96683.44;1849920;77;35507;-85
2021/08/08 05:07:44;;;;;;;13.18;7.30;;;;;;;15.66;79.83;96688.36;1849521;76;25752;-86
2021/08/08 05:10:15;;;;;;;9.30;6.58;;;;;;;15.68;79.87;96694.37;1849537;75;27358;-94
2021/08/08 05:12:41;;;;;;;8.18;6.10;;;;;;;15.74;79.93;96694.67;1849341;76;25766;-83
2021/08/08 05:15:09;;;;;;;9.00;6.20;;;;;;;15.79;79.88;96695.54;1849605;75;25759;-87
2021/08/08 05:17:37;;;;;;;10.25;6.28;;;;;;;15.82;79.95;96694.17;1848990;77;25880;-88
2021/08/08 05:20:06;;;;;;;6.53;5.65;;;;;;;15.87;79.92;96716.53;1849640;77;25738;-91
2021/08/08 05:22:33;;;;;;;6.55;5.50;;;;;;;15.95;79.88;96714.67;1830341;77;28406;-83
2021/08/08 05:24:59;;;;;;;7.65;5.28;;;;;;;16.01;79.87;96728.07;1831087;77;25825;-84
2021/08/08 05:27:26;;;;;;;7.78;6.05;;;;;;;16.07;79.98;96725.64;1843883;77;25791;-84
2021/08/08 05:29:52;;;;;;;6.80;5.87;;;;;;;16.12;80.07;96727.05;1843918;77;25672;-88
2021/08/08 05:32:20;;;;;;;10.90;5.92;;;;;;;16.16;79.95;96739.06;1828897;75;25923;-86
2021/08/08 05:34:46;;;;;;;8.63;5.53;;;;;;;16.23;80.02;96738.82;1796424;77;27495;-86
2021/08/08 05:37:13;;;;;;;10.65;5.83;;;;;;;16.29;79.96;96746.49;1840805;75;25857;-88
2021/08/08 05:39:40;;;;;;;8.48;5.53;;;;;;;16.33;79.95;96751.67;1795798;77;25744;-85
2021/08/08 05:42:06;;;;;;;9.23;5.62;;;;;;;16.38;79.95;96757.16;1831522;77;25745;-90
2021/08/08 05:44:37;;;;;;;9.93;6.87;;;;;;;16.44;79.99;96756.09;1843887;77;25839;-83
2021/08/08 05:47:01;;;;;;;10.90;5.92;;;;;;;16.47;80.10;96750.12;1843658;77;27569;-86
2021/08/08 05:49:28;;;;;;;14.38;8.53;;;;;;;16.51;80.16;96756.69;1842932;76;25790;-83
2021/08/08 05:51:55;;;;;;;12.00;8.38;;;;;;;16.53;80.14;96758.08;1813616;77;26146;-83
2021/08/08 05:54:21;;;;;;;12.45;9.73;;;;;;;16.60;80.19;96759.18;1807923;76;25830;-84
2021/08/08 05:56:48;;;;;;;12.37;10.50;;;;;;;16.65;80.28;96770.69;1841990;76;25731;-91
2021/08/08 05:59:14;;;;;;;10.25;8.38;;;;;;;16.68;80.31;96774.22;1843901;77;27356;-91
2021/08/08 06:01:41;;;;;;;10.03;6.37;;;;;;;16.73;80.30;96785.98;1824405;77;25695;-84
2021/08/08 06:04:08;;;;;;;9.83;7.60;;;;;;;16.75;80.22;96779.73;1842929;76;25782;-91
2021/08/08 06:06:34;;;;;;;9.28;7.17;;;;;;;16.77;80.24;96776.20;1836736;75;25775;-84
2021/08/08 06:09:01;;;;;;;9.25;8.05;;;;;;;16.79;80.36;96782.72;1843862;77;25770;-83
2021/08/08 06:11:27;;;;;;;12.68;7.85;;;;;;;16.82;80.46;96780.30;1843970;76;27349;-88
2021/08/08 06:13:54;;;;;;;9.53;8.28;;;;;;;16.87;80.53;96793.95;1816087;77;25746;-87
2021/08/08 06:16:21;;;;;;;9.45;7.80;;;;;;;16.89;80.64;96778.16;1837704;77;25734;-87
2021/08/08 06:18:47;;;;;;;7.78;6.97;;;;;;;16.95;80.68;96785.80;1842957;77;25794;-83
2021/08/08 06:22:50;;;;;;;8.13;7.03;;;;;;;17.08;80.84;96788.58;1847909;75;25715;-84
2021/08/08 06:25:17;;;;;;;8.93;6.92;;;;;;;17.11;80.85;96794.87;1827102;77;25462;-93
2021/08/08 06:33:25;;;;;;;7.97;5.22;;;;;;;17.38;81.11;96814.59;1871017;74;25700;-84
2021/08/08 06:38:43;;;;;;;8.88;5.28;;;;;;;17.48;80.98;96824.16;1873218;74;25524;-85
2021/08/08 06:41:10;;;;;;;10.72;7.42;;;;;;;17.48;80.88;96826.07;1839072;75;25727;-89
2021/08/08 06:43:36;;;;;;;7.85;5.97;;;;;;;17.53;80.92;96829.61;1838813;75;28150;-84
2021/08/08 06:47:30;;;;;;;6.15;5.28;;;;;;;17.64;81.09;96847.68;1869299;76;26212;-84
2021/08/08 06:49:57;;;;;;;7.05;5.95;;;;;;;17.61;81.05;96848.21;1812408;77;25737;-88
2021/08/08 06:53:46;;;;;;;8.15;6.05;;;;;;;17.69;81.06;96861.08;1854474;76;25586;-85
2021/08/08 06:56:13;;;;;;;6.90;4.80;;;;;;;17.62;81.06;96859.41;1804436;77;26635;-86
2021/08/08 06:58:39;;;;;;;5.12;4.60;;;;;;;17.64;81.11;96859.97;1818441;77;28579;-83
2021/08/08 07:01:06;;;;;;;6.15;4.25;;;;;;;17.65;81.07;96864.88;1827153;77;25750;-87
2021/08/08 07:03:33;;;;;;;5.25;4.50;;;;;;;17.68;80.95;96862.16;1823181;77;25248;-84
2021/08/08 07:05:59;;;;;;;4.45;4.03;;;;;;;17.70;80.91;96870.91;1827247;77;25695;-90
2021/08/08 07:08:26;;;;;;;8.00;4.10;;;;;;;17.70;80.87;96874.45;1827333;77;25750;-87
2021/08/08 07:10:52;;;;;;;4.05;3.55;;;;;;;17.71;80.81;96884.29;1804403;77;27394;-84
2021/08/08 07:13:19;;;;;;;5.00;3.67;;;;;;;17.72;80.79;96883.74;1811353;77;25733;-83
2021/08/08 07:15:45;;;;;;;4.55;3.55;;;;;;;17.73;80.78;96887.58;1826772;78;25693;-84
2021/08/08 07:18:12;;;;;;;3.52;3.20;;;;;;;17.74;80.72;96897.95;1826687;77;25685;-84
2021/08/08 07:20:39;;;;;;;4.17;3.42;;;;;;;17.73;80.44;96902.59;1827174;77;25790;-88
2021/08/08 07:23:05;;;;;;;3.52;2.90;;;;;;;17.76;80.51;96906.66;1827286;77;27347;-87
2021/08/08 07:25:32;;;;;;;3.08;2.77;;;;;;;17.75;80.53;96901.75;1826392;77;25847;-87
2021/08/08 07:28:00;;;;;;;2.50;2.30;;;;;;;17.73;80.53;96902.59;1827022;77;25762;-84
2021/08/08 07:30:26;;;;;;;4.05;2.52;;;;;;;17.74;80.60;96905.59;1807165;77;26421;-90
2021/08/08 07:32:53;;;;;;;2.75;2.40;;;;;;;17.72;80.47;96907.77;1827250;77;25412;-84
2021/08/08 07:35:20;;;;;;;3.70;2.25;;;;;;;17.75;80.48;96916.76;1827242;77;27977;-86
2021/08/08 07:37:46;;;;;;;3.22;2.40;;;;;;;17.76;80.34;96918.95;1826792;77;25790;-84
2021/08/08 07:40:13;;;;;;;2.87;2.30;;;;;;;17.81;80.29;96916.24;1827275;77;25718;-84
2021/08/08 07:42:42;;;;;;;2.27;2.08;;;;;;;17.89;80.31;96906.16;1824514;77;25719;-88
2021/08/08 07:45:09;;;;;;;3.72;2.58;;;;;;;17.98;80.44;96903.19;1826989;77;25765;-84
2021/08/08 07:48:31;;;;;;;2.08;1.98;;;;;;;18.18;80.49;96914.13;1800458;78;25656;-88
2021/08/08 07:50:58;;;;;;;2.80;2.47;;;;;;;18.22;80.16;96920.70;1824863;77;26450;-85
2021/08/08 07:53:24;;;;;;;3.20;2.80;;;;;;;18.30;80.08;96914.69;1827333;77;27425;-89
2021/08/08 07:55:54;;;;;;;3.33;2.98;;;;;;;18.43;79.90;96920.70;1827334;77;25750;-86
2021/08/08 07:58:20;;;;;;;2.35;2.15;;;;;;;18.58;79.90;96932.50;1827042;78;25698;-90
2021/08/08 08:00:47;;;;;;;2.58;2.10;;;;;;;18.73;79.84;96934.38;1825375;77;25424;-85
2021/08/08 08:03:14;;;;;;;4.22;2.92;;;;;;;18.83;79.33;96929.48;1827194;78;25758;-89
2021/08/08 08:05:40;;;;;;;11.08;7.42;;;;;;;18.91;79.06;96920.16;1827421;78;27353;-85
2021/08/08 08:08:07;;;;;;;11.78;10.35;;;;;;;19.02;78.75;96927.25;1804748;78;25737;-85
2021/08/08 08:10:34;;;;;;;12.43;9.95;;;;;;;19.19;78.53;96926.94;1825917;78;25923;-87
2021/08/08 08:13:02;;;;;;;7.62;6.67;;;;;;;19.35;78.34;96929.89;1817676;77;25697;-86
2021/08/08 08:15:29;;;;;;;5.70;4.15;;;;;;;19.48;77.90;96929.02;1806610;78;25730;-84
2021/08/08 08:17:57;;;;;;;4.75;2.40;;;;;;;19.57;77.29;96924.08;1813599;77;27348;-86
2021/08/08 08:20:25;;;;;;;1.55;1.45;;;;;;;19.63;76.82;96922.98;1815419;78;26464;-89
2021/08/08 08:22:52;;;;;;;1.70;1.60;;;;;;;19.67;75.89;96925.43;1824501;78;25662;-90
2021/08/08 08:25:18;;;;;;;2.85;1.35;;;;;;;19.73;75.32;96932.51;1805994;78;25634;-86
2021/08/08 08:27:45;;;;;;;1.82;1.30;;;;;;;19.78;74.64;96916.61;1804452;78;25776;-86
2021/08/08 08:30:12;;;;;;;3.37;1.30;;;;;;;19.79;74.85;96910.04;1805382;78;28209;-87
2021/08/08 08:32:39;;;;;;;1.85;1.20;;;;;;;19.83;74.76;96908.35;1815950;78;25815;-87
2021/08/08 08:35:07;;;;;;;1.70;1.40;;;;;;;19.92;74.47;96908.59;1821232;77;26231;-90
2021/08/08 08:37:34;;;;;;;1.37;1.27;;;;;;;20.03;74.05;96904.69;1823574;78;25732;-90
2021/08/08 08:40:03;;;;;;;1.10;1.00;;;;;;;20.15;73.84;96912.02;1816206;78;25856;-86
2021/08/08 08:42:31;;;;;;;2.27;1.32;;;;;;;20.32;73.50;96917.90;1812297;78;27359;-90
2021/08/08 08:44:58;;;;;;;1.30;1.20;;;;;;;20.54;73.52;96917.48;1818520;78;25644;-87
2021/08/08 08:47:24;;;;;;;2.65;1.30;;;;;;;20.75;71.94;96910.74;1823846;78;25676;-87
2021/08/08 08:49:58;;;;;;;1.42;1.32;;;;;;;20.92;72.22;96914.41;1823678;76;25689;-87
2021/08/08 08:52:28;;;;;;;1.75;1.40;;;;;;;21.12;72.02;96921.08;1810638;78;25221;-86
2021/08/08 08:54:56;;;;;;;2.80;1.80;;;;;;;21.67;71.44;96929.80;1809722;77;27519;-86
2021/08/08 08:57:24;;;;;;;1.60;1.20;;;;;;;22.28;71.16;96937.25;1813444;76;25762;-87
2021/08/08 08:59:50;;;;;;;1.47;1.10;;;;;;;22.52;69.67;96934.41;1809399;78;25680;-87
2021/08/08 09:02:17;;;;;;;1.12;1.02;;;;;;;22.40;69.33;96898.30;1807538;78;25806;-86
2021/08/08 09:04:44;;;;;;;1.90;1.40;;;;;;;22.64;68.67;96933.39;1829648;78;25717;-88
2021/08/08 09:07:10;;;;;;;1.35;1.25;;;;;;;22.78;68.62;96937.59;1829593;78;27358;-86
2021/08/08 09:09:38;;;;;;;1.50;1.40;;;;;;;23.08;67.77;96938.98;1828050;76;25252;-87
2021/08/08 09:12:05;;;;;;;1.42;1.32;;;;;;;23.19;67.17;96941.25;1829618;78;25705;-86
2021/08/08 09:14:34;;;;;;;1.20;1.10;;;;;;;23.15;66.66;96943.00;1829553;76;25726;-86
2021/08/08 09:17:01;;;;;;;1.40;1.30;;;;;;;23.07;66.53;96943.67;1801678;78;25776;-88
2021/08/08 09:19:32;;;;;;;2.65;1.30;;;;;;;23.00;66.28;96937.76;1829608;77;28111;-87
2021/08/08 09:21:59;;;;;;;2.00;1.40;;;;;;;23.30;66.57;96940.53;1829538;77;25753;-87
2021/08/08 09:24:35;;;;;;;1.40;1.22;;;;;;;23.78;66.07;96942.36;1802985;78;25758;-87
2021/08/08 09:27:08;;;;;;;1.25;1.15;;;;;;;24.27;65.20;96940.78;1824068;76;25676;-87
2021/08/08 09:29:38;;;;;;;1.42;1.32;;;;;;;24.68;64.82;96935.92;1808145;78;25790;-88
2021/08/08 09:32:05;;;;;;;1.00;1.00;;;;;;;25.06;64.21;96930.04;1797655;78;27376;-87
2021/08/08 09:34:35;;;;;;;1.47;1.12;;;;;;;25.29;63.41;96933.01;1815522;78;25756;-87
2021/08/08 09:37:10;;;;;;;1.70;1.20;;;;;;;25.38;62.04;96935.80;1811746;78;25744;-88
2021/08/08 09:39:43;;;;;;;3.05;1.40;;;;;;;25.67;61.85;96928.41;1820666;77;26397;-89
2021/08/08 09:42:21;;;;;;;2.05;1.25;;;;;;;25.96;61.19;96923.70;1821454;77;25680;-89
2021/08/08 09:44:58;;;;;;;1.95;1.35;;;;;;;26.22;60.43;96919.58;1829620;78;27375;-88
2021/08/08 09:47:45;;;;;;;1.27;1.17;;;;;;;26.31;60.16;96924.60;1823452;78;25997;-86
2021/08/08 09:50:15;;;;;;;2.80;1.17;;;;;;;26.53;59.38;96917.52;1796517;77;25830;-94
2021/08/08 09:52:56;;;;;;;1.32;1.22;;;;;;;26.72;59.27;96913.84;1819978;77;25327;-85
2021/08/08 09:55:38;;;;;;;1.17;1.12;;;;;;;26.87;58.10;96909.75;1803973;78;25727;-87
2021/08/08 09:58:20;;;;;;;1.05;1.02;;;;;;;26.93;57.84;96898.77;1807159;78;27374;-87
2021/08/08 10:00:45;;;;;;;1.17;1.07;;;;;;;27.10;57.97;96900.13;1815531;78;25972;-87
2021/08/08 10:03:20;;;;;;;1.10;1.00;;;;;;;27.21;57.42;96903.34;1829697;78;25769;-87
2021/08/08 10:05:47;;;;;;;0.90;0.90;;;;;;;27.37;57.15;96909.98;1829477;77;25737;-87
2021/08/08 10:08:17;;;;;;;1.52;1.32;;;;;;;27.42;56.38;96917.28;1829576;78;26373;-90
2021/08/08 10:10:47;;;;;;;1.30;1.20;;;;;;;27.50;56.00;96922.00;1828843;77;27411;-88
2021/08/08 10:13:52;;;;;;;4.20;3.90;;;;;;;27.53;55.69;96923.52;1806891;78;25966;-88
2021/08/08 10:16:19;;;;;;;7.55;4.33;;;;;;;27.46;55.21;96917.69;1829405;76;25261;-88
2021/08/08 10:18:55;;;;;;;2.85;2.65;;;;;;;27.18;55.11;96928.36;1829475;78;25208;-88
2021/08/08 10:21:23;;;;;;;2.08;1.70;;;;;;;27.00;55.02;96930.94;1826740;77;25229;-87
2021/08/08 10:23:52;;;;;;;1.50;1.40;;;;;;;26.83;55.01;96928.97;1819684;78;27354;-87
2021/08/08 10:26:19;;;;;;;1.40;1.30;;;;;;;26.92;55.36;96929.55;1826370;78;25639;-87
2021/08/08 10:28:49;;;;;;;1.30;1.20;;;;;;;27.10;55.45;96931.98;1810000;76;25732;-88
2021/08/08 10:31:17;;;;;;;2.72;1.15;;;;;;;27.30;54.77;96930.45;1805699;77;25740;-86
2021/08/08 10:33:48;;;;;;;2.87;1.52;;;;;;;27.52;54.32;96940.50;1808948;78;26356;-89
2021/08/08 10:36:26;;;;;;;1.37;1.27;;;;;;;27.70;54.04;96929.59;1816751;78;27363;-87
2021/08/08 10:39:06;;;;;;;1.05;1.05;;;;;;;27.89;53.08;96930.58;1817500;78;25685;-85
2021/08/08 10:41:33;;;;;;;1.17;1.07;;;;;;;27.86;52.90;96924.31;1828107;78;25272;-86
2021/08/08 10:44:12;;;;;;;1.10;1.00;;;;;;;27.85;52.57;96914.36;1827916;78;25728;-86
2021/08/08 10:46:49;;;;;;;1.12;1.02;;;;;;;28.02;52.56;96914.24;1828842;77;25659;-88
2021/08/08 10:49:31;;;;;;;1.10;1.00;;;;;;;28.10;51.89;96923.11;1822909;77;28454;-88
2021/08/08 10:52:06;;;;;;;1.07;1.00;;;;;;;27.86;51.83;96921.53;1801186;78;25860;-87
2021/08/08 10:54:52;;;;;;;1.98;1.12;;;;;;;27.68;51.69;96918.59;1806568;78;26462;-87
2021/08/08 10:57:20;;;;;;;1.35;1.20;;;;;;;27.59;52.66;96921.41;1828564;77;25779;-88
2021/08/08 10:59:52;;;;;;;1.00;1.00;;;;;;;27.69;52.12;96921.61;1816230;78;25776;-88
2021/08/08 11:02:27;;;;;;;1.60;1.07;;;;;;;27.70;52.57;96926.02;1829580;78;28167;-87
2021/08/08 11:04:55;;;;;;;0.80;0.80;;;;;;;27.80;52.78;96919.52;1796831;78;25757;-85
2021/08/08 11:07:29;;;;;;;1.50;1.10;;;;;;;27.81;52.24;96921.72;1819490;78;25715;-87
2021/08/08 11:09:56;;;;;;;1.10;1.00;;;;;;;27.85;51.59;96919.34;1810513;78;25733;-86
2021/08/08 11:12:36;;;;;;;0.88;0.88;;;;;;;27.88;51.56;96927.56;1828240;78;25740;-85
2021/08/08 11:15:05;;;;;;;0.78;0.78;;;;;;;27.95;51.61;96931.43;1829601;78;27357;-87
2021/08/08 11:17:32;;;;;;;0.95;0.82;;;;;;;27.95;51.64;96931.43;1807397;78;26255;-85
2021/08/08 11:20:00;;;;;;;0.93;0.93;;;;;;;28.03;52.53;96928.93;1810540;78;25738;-86
2021/08/08 11:22:28;;;;;;;2.67;0.98;;;;;;;28.16;52.39;96938.40;1802707;78;25800;-85
2021/08/08 11:25:12;;;;;;;1.02;0.93;;;;;;;28.19;51.98;96930.02;1803716;77;25769;-85
2021/08/08 11:27:44;;;;;;;1.05;1.00;;;;;;;28.22;52.13;96931.55;1829407;77;27419;-88
2021/08/08 11:30:16;;;;;;;0.80;0.75;;;;;;;28.22;51.77;96933.51;1829542;77;32610;-83
2021/08/08 11:32:43;;;;;;;1.65;1.07;;;;;;;28.27;51.51;96936.06;1828611;78;25747;-87
2021/08/08 11:35:14;;;;;;;1.00;0.95;;;;;;;28.26;51.57;96929.70;1829513;76;25868;-86
2021/08/08 11:37:45;;;;;;;1.00;1.00;;;;;;;28.10;51.39;96934.78;1810924;78;25777;-86
2021/08/08 11:40:22;;;;;;;0.90;0.90;;;;;;;27.77;51.77;96932.69;1812197;78;27423;-85
2021/08/08 11:42:56;;;;;;;1.00;0.95;;;;;;;27.56;51.42;96935.94;1829418;77;25652;-87
2021/08/08 11:45:47;;;;;;;1.22;0.80;;;;;;;27.38;51.94;96945.44;1805814;78;25779;-88
2021/08/08 11:48:17;;;;;;;0.88;0.88;;;;;;;27.18;52.52;96946.94;1814887;78;25663;-90
2021/08/08 11:50:46;;;;;;;1.37;1.00;;;;;;;27.06;52.42;96948.19;1808024;78;25205;-83
2021/08/08 11:53:13;;;;;;;1.20;1.00;;;;;;;27.01;52.51;96945.61;1774627;78;27554;-84
2021/08/08 11:55:39;;;;;;;1.22;1.12;;;;;;;26.94;52.35;96949.42;1815454;78;25761;-87
2021/08/08 11:58:11;;;;;;;1.30;1.20;;;;;;;26.98;52.20;96952.61;1820153;77;25719;-86
2021/08/08 12:00:40;;;;;;;1.22;1.12;;;;;;;26.88;52.17;96948.20;1813842;78;25726;-88